createdAt,value
2023-05-11T00:00:54.344Z,0.00
2023-05-11T00:01:54.370Z,0.00
2023-05-11T00:02:54.383Z,0.00
2023-05-11T00:03:54.401Z,0.00
2023-05-11T00:04:54.301Z,0.00
2023-05-11T00:05:54.276Z,0.00
2023-05-11T00:06:54.266Z,0.00
2023-05-11T00:07:54.250Z,0.00
2023-05-11T00:08:54.240Z,0.00
2023-05-11T00:09:54.227Z,0.00
2023-05-11T00:10:54.241Z,0.00
2023-05-11T00:11:54.196Z,0.00
2023-05-11T00:12:54.188Z,0.00
2023-05-11T00:13:54.174Z,0.00
2023-05-11T00:14:54.161Z,0.00
2023-05-11T00:15:54.171Z,0.00
2023-05-11T00:16:54.142Z,0.00
2023-05-11T00:17:54.167Z,0.00
2023-05-11T00:18:54.204Z,0.00
2023-05-11T00:19:54.094Z,0.00
2023-05-11T00:20:54.084Z,0.00
2023-05-11T00:21:54.068Z,0.00
2023-05-11T00:22:54.054Z,0.00
2023-05-11T00:23:54.045Z,0.00
2023-05-11T00:24:54.031Z,0.00
2023-05-11T00:25:54.020Z,0.00
2023-05-11T00:26:54.009Z,0.00
2023-05-11T00:27:53.991Z,0.00
2023-05-11T00:28:53.984Z,0.00
2023-05-11T00:29:53.964Z,0.00
2023-05-11T00:30:53.953Z,0.00
2023-05-11T00:31:54.045Z,0.00
2023-05-11T00:32:53.971Z,0.00
2023-05-11T00:33:53.934Z,0.00
2023-05-11T00:34:53.897Z,0.00
2023-05-11T00:35:53.884Z,0.00
2023-05-11T00:36:53.870Z,0.00
2023-05-11T00:37:53.859Z,0.00
2023-05-11T00:38:53.852Z,0.00
2023-05-11T00:39:53.828Z,0.00
2023-05-11T00:40:53.820Z,0.00
2023-05-11T00:41:53.801Z,0.00
2023-05-11T00:42:53.793Z,0.00
2023-05-11T00:43:53.794Z,0.00
2023-05-11T00:44:53.760Z,0.00
2023-05-11T00:45:53.749Z,0.00
2023-05-11T00:46:53.796Z,0.00
2023-05-11T00:47:53.761Z,0.00
2023-05-11T00:48:53.703Z,0.00
2023-05-11T00:49:53.724Z,0.00
2023-05-11T00:50:53.691Z,0.00
2023-05-11T00:51:53.667Z,0.00
2023-05-11T00:52:53.706Z,0.00
2023-05-11T00:53:53.652Z,0.00
2023-05-11T00:54:53.623Z,0.00
2023-05-11T00:55:53.617Z,0.00
2023-05-11T00:56:53.597Z,0.00
2023-05-11T00:57:53.585Z,0.00
2023-05-11T00:58:53.583Z,0.00
2023-05-11T00:59:53.559Z,0.00
2023-05-11T01:00:53.599Z,0.00
2023-05-11T01:01:53.560Z,0.00
2023-05-11T01:02:53.646Z,0.00
2023-05-11T01:03:53.507Z,0.00
2023-05-11T01:04:53.500Z,0.00
2023-05-11T01:05:53.503Z,0.00
2023-05-11T01:06:53.465Z,0.00
2023-05-11T01:07:53.455Z,0.00
2023-05-11T01:08:53.440Z,0.00
2023-05-11T01:09:53.432Z,0.00
2023-05-11T01:10:53.417Z,0.00
2023-05-11T01:11:53.402Z,0.00
2023-05-11T01:12:53.388Z,0.00
2023-05-11T01:13:53.380Z,0.00
2023-05-11T01:14:53.367Z,0.00
2023-05-11T01:15:53.353Z,0.00
2023-05-11T01:16:53.367Z,0.00
2023-05-11T01:17:53.344Z,0.00
2023-05-11T01:18:53.344Z,0.00
2023-05-11T01:19:53.300Z,0.00
2023-05-11T01:20:53.288Z,0.00
2023-05-11T01:21:53.315Z,0.00
2023-05-11T01:22:53.263Z,0.00
2023-05-11T01:23:53.247Z,0.00
2023-05-11T01:24:53.238Z,0.00
2023-05-11T01:25:53.219Z,0.00
2023-05-11T01:26:53.210Z,0.00
2023-05-11T01:27:53.194Z,0.00
2023-05-11T01:28:53.190Z,0.00
2023-05-11T01:29:53.239Z,0.00
2023-05-11T01:30:53.154Z,0.00
2023-05-11T01:31:53.183Z,0.00
2023-05-11T01:32:53.168Z,0.00
2023-05-11T01:33:53.112Z,0.00
2023-05-11T01:34:53.101Z,0.00
2023-05-11T01:35:53.088Z,0.00
2023-05-11T01:36:53.069Z,0.00
2023-05-11T01:37:53.090Z,0.00
2023-05-11T01:38:53.044Z,0.00
2023-05-11T01:39:53.032Z,0.00
2023-05-11T01:40:53.027Z,0.00
2023-05-11T01:41:53.023Z,0.00
2023-05-11T01:42:52.990Z,0.00
2023-05-11T01:43:52.981Z,0.00
2023-05-11T01:44:52.969Z,0.00
2023-05-11T01:45:52.977Z,0.00
2023-05-11T01:46:52.935Z,0.00
2023-05-11T01:47:52.957Z,0.00
2023-05-11T01:48:52.912Z,0.00
2023-05-11T01:49:52.895Z,0.00
2023-05-11T01:50:52.889Z,0.00
2023-05-11T01:51:52.869Z,0.00
2023-05-11T01:52:52.873Z,0.00
2023-05-11T01:53:52.870Z,0.00
2023-05-11T01:54:52.828Z,0.00
2023-05-11T01:55:52.819Z,0.00
2023-05-11T01:56:52.803Z,0.00
2023-05-11T01:57:52.789Z,0.00
2023-05-11T01:58:52.784Z,0.00
2023-05-11T01:59:52.762Z,0.00
2023-05-11T02:00:52.750Z,0.00
2023-05-11T02:01:52.786Z,0.00
2023-05-11T02:02:52.784Z,0.00
2023-05-11T02:03:52.711Z,0.00
2023-05-11T02:04:52.694Z,0.00
2023-05-11T02:05:52.689Z,0.00
2023-05-11T02:06:52.669Z,0.00
2023-05-11T02:07:52.688Z,0.00
2023-05-11T02:08:52.640Z,0.00
2023-05-11T02:09:52.704Z,0.00
2023-05-11T02:10:52.665Z,0.00
2023-05-11T02:11:52.600Z,0.00
2023-05-11T02:12:52.628Z,0.00
2023-05-11T02:13:52.579Z,0.00
2023-05-11T02:14:52.563Z,0.00
2023-05-11T02:15:52.600Z,0.00
2023-05-11T02:16:52.533Z,0.00
2023-05-11T02:17:52.546Z,0.00
2023-05-11T02:18:52.538Z,0.00
2023-05-11T02:19:52.499Z,0.00
2023-05-11T02:20:52.479Z,0.00
2023-05-11T02:21:52.471Z,0.00
2023-05-11T02:22:52.456Z,0.00
2023-05-11T02:23:52.440Z,0.00
2023-05-11T02:24:52.427Z,0.00
2023-05-11T02:25:52.440Z,0.00
2023-05-11T02:26:52.404Z,0.00
2023-05-11T02:27:52.391Z,0.00
2023-05-11T02:28:52.372Z,0.00
2023-05-11T02:29:52.371Z,0.00
2023-05-11T02:30:52.348Z,0.00
2023-05-11T02:31:52.338Z,0.00
2023-05-11T02:32:52.347Z,0.00
2023-05-11T02:33:52.823Z,0.00
2023-05-11T02:34:52.294Z,0.00
2023-05-11T02:35:52.282Z,0.00
2023-05-11T02:36:52.269Z,0.00
2023-05-11T02:37:52.257Z,0.00
2023-05-11T02:38:52.244Z,0.00
2023-05-11T02:39:52.230Z,0.00
2023-05-11T02:40:52.217Z,0.00
2023-05-11T02:41:52.224Z,0.00
2023-05-11T02:42:52.186Z,0.00
2023-05-11T02:43:52.176Z,0.00
2023-05-11T02:44:52.162Z,0.00
2023-05-11T02:45:52.150Z,0.00
2023-05-11T02:46:52.177Z,0.00
2023-05-11T02:47:52.165Z,0.00
2023-05-11T02:48:52.114Z,0.00
2023-05-11T02:49:52.099Z,0.00
2023-05-11T02:50:52.089Z,0.00
2023-05-11T02:51:52.080Z,0.00
2023-05-11T02:52:52.055Z,0.00
2023-05-11T02:53:52.048Z,0.00
2023-05-11T02:54:52.032Z,0.00
2023-05-11T02:55:52.021Z,0.00
2023-05-11T02:56:52.007Z,0.00
2023-05-11T02:57:52.038Z,0.00
2023-05-11T02:58:51.990Z,0.00
2023-05-11T02:59:51.971Z,0.00
2023-05-11T03:00:52.027Z,0.00
2023-05-11T03:01:52.053Z,0.00
2023-05-11T03:02:51.990Z,0.00
2023-05-11T03:03:52.030Z,0.00
2023-05-11T03:04:51.907Z,0.00
2023-05-11T03:05:51.893Z,0.00
2023-05-11T03:06:51.889Z,0.00
2023-05-11T03:07:51.880Z,0.00
2023-05-11T03:08:51.862Z,0.00
2023-05-11T03:09:51.848Z,0.00
2023-05-11T03:10:51.831Z,0.00
2023-05-11T03:11:51.820Z,0.00
2023-05-11T03:12:51.808Z,0.00
2023-05-11T03:13:51.818Z,0.00
2023-05-11T03:14:51.778Z,0.00
2023-05-11T03:15:51.770Z,0.00
2023-05-11T03:16:51.798Z,0.00
2023-05-11T03:17:51.761Z,0.00
2023-05-11T03:18:51.827Z,0.00
2023-05-11T03:19:51.722Z,0.00
2023-05-11T03:20:51.713Z,0.00
2023-05-11T03:21:51.695Z,0.00
2023-05-11T03:22:51.694Z,0.00
2023-05-11T03:23:51.673Z,0.00
2023-05-11T03:24:51.661Z,0.00
2023-05-11T03:25:51.648Z,0.00
2023-05-11T03:26:51.638Z,0.00
2023-05-11T03:27:51.624Z,0.00
2023-05-11T03:28:51.608Z,0.00
2023-05-11T03:29:51.620Z,0.00
2023-05-11T03:30:51.594Z,0.00
2023-05-11T03:31:51.640Z,0.00
2023-05-11T03:32:51.579Z,0.00
2023-05-11T03:33:51.556Z,0.00
2023-05-11T03:34:51.533Z,0.00
2023-05-11T03:35:51.528Z,0.00
2023-05-11T03:36:51.512Z,0.00
2023-05-11T03:37:51.499Z,0.00
2023-05-11T03:38:51.481Z,0.00
2023-05-11T03:39:51.491Z,0.00
2023-05-11T03:40:51.452Z,0.00
2023-05-11T03:41:51.441Z,0.00
2023-05-11T03:42:51.430Z,0.01
2023-05-11T03:43:51.779Z,0.01
2023-05-11T03:44:51.404Z,0.01
2023-05-11T03:45:51.431Z,0.01
2023-05-11T03:46:51.377Z,0.01
2023-05-11T03:47:51.383Z,0.01
2023-05-11T03:48:51.358Z,0.01
2023-05-11T03:49:51.362Z,0.01
2023-05-11T03:50:51.323Z,0.02
2023-05-11T03:51:51.313Z,0.02
2023-05-11T03:52:51.299Z,0.02
2023-05-11T03:53:51.282Z,0.02
2023-05-11T03:54:51.271Z,0.02
2023-05-11T03:55:51.263Z,0.02
2023-05-11T03:56:51.243Z,0.03
2023-05-11T03:57:51.235Z,0.03
2023-05-11T03:58:51.217Z,0.03
2023-05-11T03:59:51.234Z,0.05
2023-05-11T04:00:51.190Z,0.05
2023-05-11T04:01:51.202Z,0.05
2023-05-11T04:02:51.222Z,0.05
2023-05-11T04:03:51.262Z,0.06
2023-05-11T04:04:51.179Z,0.06
2023-05-11T04:05:51.132Z,0.06
2023-05-11T04:06:51.106Z,0.07
2023-05-11T04:07:51.105Z,0.07
2023-05-11T04:08:51.095Z,0.07
2023-05-11T04:09:51.074Z,0.08
2023-05-11T04:10:51.058Z,0.08
2023-05-11T04:11:51.048Z,0.08
2023-05-11T04:12:51.032Z,0.10
2023-05-11T04:13:51.031Z,0.10
2023-05-11T04:14:51.006Z,0.10
2023-05-11T04:15:53.663Z,0.10
2023-05-11T04:16:50.985Z,0.11
2023-05-11T04:17:51.001Z,0.12
2023-05-11T04:18:51.002Z,0.12
2023-05-11T04:19:50.940Z,0.13
2023-05-11T04:20:50.925Z,0.13
2023-05-11T04:21:50.914Z,0.15
2023-05-11T04:22:50.905Z,0.15
2023-05-11T04:23:50.890Z,0.16
2023-05-11T04:24:50.872Z,0.16
2023-05-11T04:25:50.861Z,0.17
2023-05-11T04:26:50.845Z,0.17
2023-05-11T04:27:50.835Z,0.18
2023-05-11T04:28:50.829Z,0.18
2023-05-11T04:29:50.809Z,0.18
2023-05-11T04:30:50.793Z,0.20
2023-05-11T04:31:50.809Z,0.20
2023-05-11T04:32:50.799Z,0.21
2023-05-11T04:33:50.779Z,0.21
2023-05-11T04:34:50.739Z,0.22
2023-05-11T04:35:50.731Z,0.22
2023-05-11T04:36:50.726Z,0.24
2023-05-11T04:37:50.705Z,0.24
2023-05-11T04:38:50.686Z,0.25
2023-05-11T04:39:50.673Z,0.26
2023-05-11T04:40:50.795Z,0.26
2023-05-11T04:41:50.663Z,0.27
2023-05-11T04:42:50.635Z,0.29
2023-05-11T04:43:50.622Z,0.30
2023-05-11T04:44:50.606Z,0.30
2023-05-11T04:45:50.589Z,0.31
2023-05-11T04:46:50.607Z,0.32
2023-05-11T04:47:50.592Z,0.34
2023-05-11T04:48:50.552Z,0.35
2023-05-11T04:49:50.564Z,0.36
2023-05-11T04:50:50.526Z,0.37
2023-05-11T04:51:50.519Z,0.39
2023-05-11T04:52:50.503Z,0.40
2023-05-11T04:53:50.594Z,0.41
2023-05-11T04:54:50.474Z,0.43
2023-05-11T04:55:50.459Z,0.44
2023-05-11T04:56:50.450Z,0.45
2023-05-11T04:57:50.435Z,0.46
2023-05-11T04:58:50.419Z,0.48
2023-05-11T04:59:50.462Z,0.50
2023-05-11T05:00:50.425Z,0.51
2023-05-11T05:01:50.386Z,0.53
2023-05-11T05:02:50.443Z,0.54
2023-05-11T05:03:50.377Z,0.56
2023-05-11T05:04:50.356Z,0.56
2023-05-11T05:05:50.367Z,0.58
2023-05-11T05:06:50.320Z,0.60
2023-05-11T05:07:50.344Z,0.62
2023-05-11T05:08:50.298Z,0.64
2023-05-11T05:09:50.289Z,0.65
2023-05-11T05:10:50.270Z,0.68
2023-05-11T05:11:50.257Z,0.69
2023-05-11T05:12:50.245Z,0.72
2023-05-11T05:13:50.236Z,0.74
2023-05-11T05:14:50.226Z,0.77
2023-05-11T05:15:50.221Z,0.78
2023-05-11T05:16:50.230Z,0.81
2023-05-11T05:17:50.193Z,0.83
2023-05-11T05:18:50.253Z,0.87
2023-05-11T05:19:50.155Z,0.89
2023-05-11T05:20:50.144Z,0.92
2023-05-11T05:21:50.163Z,0.92
2023-05-11T05:22:50.113Z,0.94
2023-05-11T05:23:50.109Z,0.97
2023-05-11T05:24:50.090Z,0.98
2023-05-11T05:25:50.074Z,0.99
2023-05-11T05:26:50.062Z,1.01
2023-05-11T05:27:50.049Z,1.03
2023-05-11T05:28:50.039Z,1.03
2023-05-11T05:29:50.020Z,1.03
2023-05-11T05:30:50.071Z,1.03
2023-05-11T05:31:49.997Z,1.05
2023-05-11T05:32:50.025Z,1.05
2023-05-11T05:33:49.971Z,1.06
2023-05-11T05:34:49.961Z,1.07
2023-05-11T05:35:49.949Z,1.07
2023-05-11T05:36:49.937Z,1.08
2023-05-11T05:37:49.951Z,1.10
2023-05-11T05:38:49.910Z,1.12
2023-05-11T05:39:49.897Z,1.08
2023-05-11T05:40:49.890Z,1.07
2023-05-11T05:41:49.871Z,1.06
2023-05-11T05:42:49.864Z,1.03
2023-05-11T05:43:49.854Z,1.02
2023-05-11T05:44:49.837Z,1.01
2023-05-11T05:45:49.860Z,1.01
2023-05-11T05:46:49.816Z,1.01
2023-05-11T05:47:49.865Z,1.01
2023-05-11T05:48:49.790Z,1.01
2023-05-11T05:49:49.769Z,0.99
2023-05-11T05:50:49.758Z,0.97
2023-05-11T05:51:49.742Z,0.96
2023-05-11T05:52:49.743Z,0.93
2023-05-11T05:53:49.742Z,0.92
2023-05-11T05:54:49.705Z,0.91
2023-05-11T05:55:49.688Z,0.89
2023-05-11T05:56:49.685Z,0.88
2023-05-11T05:57:49.670Z,0.87
2023-05-11T05:58:49.660Z,0.86
2023-05-11T05:59:49.656Z,0.82
2023-05-11T06:00:49.627Z,0.82
2023-05-11T06:01:49.617Z,0.83
2023-05-11T06:02:49.699Z,0.83
2023-05-11T06:03:49.689Z,0.86
2023-05-11T06:04:49.628Z,0.87
2023-05-11T06:05:49.568Z,0.86
2023-05-11T06:06:49.549Z,0.86
2023-05-11T06:08:01.875Z,0.86
2023-05-11T06:08:51.549Z,0.84
2023-05-11T06:09:49.516Z,0.84
2023-05-11T06:10:49.519Z,0.84
2023-05-11T06:11:49.489Z,0.87
2023-05-11T06:12:49.473Z,0.89
2023-05-11T06:13:49.461Z,0.92
2023-05-11T06:14:49.444Z,0.93
2023-05-11T06:15:49.554Z,0.94
2023-05-11T06:16:49.440Z,0.93
2023-05-11T06:17:49.503Z,0.92
2023-05-11T06:18:49.418Z,0.91
2023-05-11T06:19:49.380Z,0.89
2023-05-11T06:20:49.384Z,0.91
2023-05-11T06:21:49.359Z,0.93
2023-05-11T06:22:49.352Z,0.97
2023-05-11T06:23:49.360Z,0.98
2023-05-11T06:24:49.345Z,0.98
2023-05-11T06:25:49.307Z,0.97
2023-05-11T06:26:49.291Z,0.93
2023-05-11T06:27:49.344Z,0.91
2023-05-11T06:28:49.286Z,0.91
2023-05-11T06:29:49.277Z,0.93
2023-05-11T06:30:49.250Z,0.96
2023-05-11T06:31:49.296Z,0.96
2023-05-11T06:32:49.283Z,0.96
2023-05-11T06:33:49.229Z,0.94
2023-05-11T06:34:49.194Z,0.91
2023-05-11T06:35:49.179Z,0.87
2023-05-11T06:36:49.166Z,0.83
2023-05-11T06:37:49.159Z,0.82
2023-05-11T06:38:49.157Z,0.82
2023-05-11T06:39:49.132Z,0.82
2023-05-11T06:40:49.135Z,0.83
2023-05-11T06:41:49.133Z,0.86
2023-05-11T06:42:49.083Z,0.87
2023-05-11T06:43:49.081Z,0.86
2023-05-11T06:44:49.138Z,0.82
2023-05-11T06:45:49.083Z,0.78
2023-05-11T06:46:49.036Z,0.73
2023-05-11T06:47:49.089Z,0.68
2023-05-11T06:48:49.008Z,0.67
2023-05-11T06:49:49.015Z,0.67
2023-05-11T06:50:48.981Z,0.65
2023-05-11T06:51:48.966Z,0.64
2023-05-11T06:52:48.975Z,0.64
2023-05-11T06:53:48.941Z,0.67
2023-05-11T06:54:48.927Z,0.68
2023-05-11T06:55:48.925Z,0.69
2023-05-11T06:56:48.946Z,0.70
2023-05-11T06:57:48.892Z,0.69
2023-05-11T06:58:48.874Z,0.67
2023-05-11T06:59:48.859Z,0.64
2023-05-11T07:00:48.944Z,0.62
2023-05-11T07:01:48.844Z,0.62
2023-05-11T07:02:48.873Z,0.63
2023-05-11T07:03:48.828Z,0.64
2023-05-11T07:04:48.821Z,0.65
2023-05-11T07:05:48.778Z,0.68
2023-05-11T07:06:48.771Z,0.65
2023-05-11T07:07:48.752Z,0.64
2023-05-11T07:08:48.742Z,0.63
2023-05-11T07:09:48.728Z,0.60
2023-05-11T07:10:48.717Z,0.58
2023-05-11T07:11:48.707Z,0.58
2023-05-11T07:12:48.730Z,0.59
2023-05-11T07:13:48.685Z,0.60
2023-05-11T07:14:48.667Z,0.63
2023-05-11T07:15:48.648Z,0.67
2023-05-11T07:16:48.663Z,0.69
2023-05-11T07:17:48.656Z,0.70
2023-05-11T07:18:48.624Z,0.69
2023-05-11T07:19:48.596Z,0.68
2023-05-11T07:20:48.582Z,0.67
2023-05-11T07:22:48.560Z,0.68
2023-05-11T07:23:48.542Z,0.68
2023-05-11T07:24:48.529Z,0.68
2023-05-11T07:25:48.520Z,0.68
2023-05-11T07:26:48.504Z,0.68
2023-05-11T07:27:48.492Z,0.68
2023-05-11T07:28:48.501Z,0.69
2023-05-11T07:29:48.478Z,0.69
2023-05-11T07:30:48.452Z,0.70
2023-05-11T07:31:48.618Z,0.72
2023-05-11T07:32:48.485Z,0.73
2023-05-11T07:33:48.410Z,0.74
2023-05-11T07:34:48.401Z,0.77
2023-05-11T07:35:48.381Z,0.75
2023-05-11T07:36:48.370Z,0.77
2023-05-11T07:37:48.364Z,0.77
2023-05-11T07:38:48.345Z,0.78
2023-05-11T07:39:48.331Z,0.78
2023-05-11T07:40:48.321Z,0.79
2023-05-11T07:41:48.304Z,0.79
2023-05-11T07:42:48.290Z,0.79
2023-05-11T07:43:48.279Z,0.78
2023-05-11T07:44:48.287Z,0.78
2023-05-11T07:45:48.256Z,0.78
2023-05-11T07:46:48.330Z,0.79
2023-05-11T07:47:48.270Z,0.82
2023-05-11T07:48:48.217Z,0.83
2023-05-11T07:49:48.200Z,0.84
2023-05-11T07:50:48.187Z,0.89
2023-05-11T07:51:48.175Z,0.89
2023-05-11T07:52:49.332Z,0.92
2023-05-11T07:53:48.158Z,0.91
2023-05-11T07:54:48.134Z,0.91
2023-05-11T07:55:48.115Z,0.92
2023-05-11T07:56:48.107Z,0.94
2023-05-11T07:57:48.094Z,0.94
2023-05-11T07:58:48.085Z,0.96
2023-05-11T07:59:48.080Z,0.97
2023-05-11T08:00:48.087Z,0.99
2023-05-11T08:01:48.078Z,1.01
2023-05-11T08:02:48.166Z,1.02
2023-05-11T08:03:48.017Z,1.03
2023-05-11T08:04:48.046Z,1.05
2023-05-11T08:05:48.044Z,1.06
2023-05-11T08:06:47.977Z,1.08
2023-05-11T08:07:47.965Z,1.11
2023-05-11T08:08:47.952Z,1.12
2023-05-11T08:09:47.945Z,1.12
2023-05-11T08:10:47.928Z,1.12
2023-05-11T08:11:47.914Z,1.11
2023-05-11T08:12:47.902Z,1.11
2023-05-11T08:13:47.891Z,1.10
2023-05-11T08:14:47.876Z,1.10
2023-05-11T08:15:47.861Z,1.07
2023-05-11T08:16:47.927Z,1.06
2023-05-11T08:17:47.923Z,1.06
2023-05-11T08:18:47.918Z,1.05
2023-05-11T08:19:47.810Z,1.03
2023-05-11T08:20:47.799Z,1.02
2023-05-11T08:21:47.781Z,1.01
2023-05-11T08:22:47.775Z,1.01
2023-05-11T08:23:47.757Z,0.99
2023-05-11T08:24:47.747Z,0.99
2023-05-11T08:25:47.732Z,0.99
2023-05-11T08:26:47.721Z,1.01
2023-05-11T08:27:47.715Z,0.99
2023-05-11T08:28:47.696Z,1.01
2023-05-11T08:29:47.684Z,1.01
2023-05-11T08:30:47.670Z,1.02
2023-05-11T08:31:47.717Z,1.03
2023-05-11T08:32:57.991Z,1.05
2023-05-11T08:33:49.719Z,1.05
2023-05-11T08:34:47.771Z,1.06
2023-05-11T08:35:47.604Z,1.06
2023-05-11T08:36:47.613Z,1.06
2023-05-11T08:37:47.578Z,1.06
2023-05-11T08:38:47.567Z,1.06
2023-05-11T08:39:48.080Z,1.07
2023-05-11T08:40:47.541Z,1.06
2023-05-11T08:41:47.525Z,1.07
2023-05-11T08:42:47.514Z,1.08
2023-05-11T08:43:47.500Z,1.11
2023-05-11T08:44:47.489Z,1.12
2023-05-11T08:45:47.503Z,1.13
2023-05-11T08:46:47.464Z,1.15
2023-05-11T08:47:47.503Z,1.16
2023-05-11T08:48:47.533Z,1.20
2023-05-11T08:49:47.433Z,1.24
2023-05-11T08:50:47.414Z,1.27
2023-05-11T08:51:47.401Z,1.31
2023-05-11T08:52:47.382Z,1.36
2023-05-11T08:53:47.367Z,1.43
2023-05-11T08:54:47.358Z,1.43
2023-05-11T08:55:47.343Z,1.45
2023-05-11T08:56:47.332Z,1.45
2023-05-11T08:57:47.321Z,1.45
2023-05-11T08:58:47.301Z,1.44
2023-05-11T08:59:47.312Z,1.43
2023-05-11T09:00:47.275Z,1.43
2023-05-11T09:01:47.415Z,1.39
2023-05-11T09:02:47.299Z,1.35
2023-05-11T09:03:47.235Z,1.31
2023-05-11T09:04:48.647Z,1.30
2023-05-11T09:05:47.286Z,1.30
2023-05-11T09:06:47.203Z,1.32
2023-05-11T09:07:47.187Z,1.35
2023-05-11T09:08:47.179Z,1.36
2023-05-11T09:09:47.187Z,1.35
2023-05-11T09:10:47.147Z,1.36
2023-05-11T09:11:47.136Z,1.39
2023-05-11T09:12:47.125Z,1.44
2023-05-11T09:13:47.119Z,1.46
2023-05-11T09:14:47.105Z,1.45
2023-05-11T09:15:47.100Z,1.44
2023-05-11T09:16:47.100Z,1.39
2023-05-11T09:17:47.069Z,1.34
2023-05-11T09:18:47.099Z,1.30
2023-05-11T09:19:47.044Z,1.26
2023-05-11T09:20:47.044Z,1.24
2023-05-11T09:21:47.009Z,1.22
2023-05-11T09:22:46.997Z,1.18
2023-05-11T09:23:46.981Z,1.17
2023-05-11T09:24:46.969Z,1.16
2023-05-11T09:25:46.956Z,1.15
2023-05-11T09:26:46.944Z,1.13
2023-05-11T09:27:46.932Z,1.15
2023-05-11T09:28:46.944Z,1.16
2023-05-11T09:29:51.976Z,1.17
2023-05-11T09:30:46.892Z,1.18
2023-05-11T09:31:46.978Z,1.17
2023-05-11T09:32:46.928Z,1.15
2023-05-11T09:33:46.860Z,1.12
2023-05-11T09:34:46.864Z,1.12
2023-05-11T09:35:46.834Z,1.15
2023-05-11T09:36:46.849Z,1.17
2023-05-11T09:37:46.814Z,1.18
2023-05-11T09:38:46.796Z,1.18
2023-05-11T09:40:46.771Z,1.18
2023-05-11T09:41:46.763Z,1.20
2023-05-11T09:42:46.749Z,1.21
2023-05-11T09:43:46.736Z,1.22
2023-05-11T09:44:46.721Z,1.25
2023-05-11T09:45:46.707Z,1.29
2023-05-11T09:46:46.799Z,1.32
2023-05-11T09:47:49.033Z,1.36
2023-05-11T09:48:46.678Z,1.45
2023-05-11T09:49:46.693Z,1.55
2023-05-11T09:50:46.646Z,1.63
2023-05-11T09:51:46.650Z,1.72
2023-05-11T09:52:46.646Z,1.79
2023-05-11T09:53:46.615Z,1.92
2023-05-11T09:54:46.611Z,2.06
2023-05-11T09:55:46.587Z,2.01
2023-05-11T09:56:46.575Z,2.02
2023-05-11T09:57:46.559Z,2.05
2023-05-11T09:58:46.549Z,2.12
2023-05-11T09:59:46.539Z,2.16
2023-05-11T10:00:46.524Z,2.22
2023-05-11T10:01:46.576Z,2.20
2023-05-11T10:02:46.550Z,2.26
2023-05-11T10:03:46.574Z,2.44
2023-05-11T10:04:46.472Z,2.31
2023-05-11T10:05:46.460Z,2.31
2023-05-11T10:06:46.446Z,2.34
2023-05-11T10:07:46.432Z,2.40
2023-05-11T10:08:46.450Z,2.39
2023-05-11T10:09:46.408Z,2.44
2023-05-11T10:10:46.392Z,2.46
2023-05-11T10:11:46.401Z,2.50
2023-05-11T10:12:46.366Z,2.59
2023-05-11T10:13:46.369Z,2.91
2023-05-11T10:14:46.341Z,2.75
2023-05-11T10:15:46.336Z,2.64
2023-05-11T10:16:46.324Z,2.61
2023-05-11T10:17:46.364Z,2.89
2023-05-11T10:18:46.348Z,3.11
2023-05-11T10:19:46.281Z,3.22
2023-05-11T10:20:46.265Z,3.29
2023-05-11T10:21:46.265Z,3.42
2023-05-11T10:22:46.242Z,3.39
2023-05-11T10:23:46.226Z,3.75
2023-05-11T10:24:46.244Z,3.82
2023-05-11T10:25:46.211Z,3.88
2023-05-11T10:26:46.191Z,3.87
2023-05-11T10:27:46.187Z,3.98
2023-05-11T10:28:46.163Z,4.12
2023-05-11T10:29:46.155Z,4.05
2023-05-11T10:30:46.135Z,4.10
2023-05-11T10:31:46.197Z,4.02
2023-05-11T10:32:46.155Z,3.92
2023-05-11T10:33:47.255Z,3.79
2023-05-11T10:34:46.096Z,3.24
2023-05-11T10:35:46.090Z,3.32
2023-05-11T10:36:46.059Z,3.49
2023-05-11T10:37:46.051Z,3.56
2023-05-11T10:38:46.044Z,3.82
2023-05-11T10:39:48.454Z,3.93
2023-05-11T10:40:46.034Z,3.91
2023-05-11T10:41:45.998Z,3.86
2023-05-11T10:42:45.986Z,3.86
2023-05-11T10:43:45.977Z,3.79
2023-05-11T10:44:45.961Z,3.74
2023-05-11T10:45:46.005Z,3.32
2023-05-11T10:46:45.934Z,3.55
2023-05-11T10:47:45.956Z,3.07
2023-05-11T10:48:45.907Z,3.06
2023-05-11T10:49:45.894Z,3.21
2023-05-11T10:50:45.887Z,3.58
2023-05-11T10:51:45.896Z,3.44
2023-05-11T10:52:45.864Z,3.51
2023-05-11T10:53:45.848Z,3.67
2023-05-11T10:54:45.834Z,3.32
2023-05-11T10:55:47.041Z,3.49
2023-05-11T10:56:45.833Z,3.60
2023-05-11T10:58:45.782Z,3.78
2023-05-11T10:59:45.773Z,3.73
2023-05-11T11:00:45.846Z,3.70
2023-05-11T11:01:45.850Z,3.70
2023-05-11T11:02:45.768Z,3.69
2023-05-11T11:03:45.724Z,3.64
2023-05-11T11:04:45.712Z,3.25
2023-05-11T11:05:45.758Z,3.01
2023-05-11T11:06:45.689Z,2.96
2023-05-11T11:07:45.675Z,2.69
2023-05-11T11:08:45.664Z,2.58
2023-05-11T11:09:45.649Z,2.40
2023-05-11T11:10:45.634Z,2.32
2023-05-11T11:11:45.625Z,2.32
2023-05-11T11:12:45.633Z,2.41
2023-05-11T11:13:45.598Z,2.61
2023-05-11T11:14:45.585Z,2.67
2023-05-11T11:15:45.577Z,2.69
2023-05-11T11:16:45.573Z,2.73
2023-05-11T11:17:45.579Z,2.80
2023-05-11T11:18:45.588Z,2.83
2023-05-11T11:19:45.523Z,2.83
2023-05-11T11:20:45.509Z,2.79
2023-05-11T11:21:45.529Z,2.78
2023-05-11T11:22:45.485Z,2.75
2023-05-11T11:23:45.486Z,2.74
2023-05-11T11:24:45.472Z,2.77
2023-05-11T11:25:45.447Z,2.80
2023-05-11T11:26:45.434Z,2.88
2023-05-11T11:27:45.544Z,2.88
2023-05-11T11:28:45.431Z,2.89
2023-05-11T11:29:45.395Z,2.92
2023-05-11T11:30:45.408Z,2.93
2023-05-11T11:31:45.435Z,2.93
2023-05-11T11:32:46.187Z,2.96
2023-05-11T11:33:45.342Z,2.96
2023-05-11T11:34:45.329Z,2.94
2023-05-11T11:35:45.325Z,2.89
2023-05-11T11:36:45.302Z,2.88
2023-05-11T11:37:45.288Z,2.83
2023-05-11T11:38:45.282Z,2.75
2023-05-11T11:39:45.264Z,2.75
2023-05-11T11:40:50.581Z,2.78
2023-05-11T11:41:47.237Z,2.78
2023-05-11T11:42:45.225Z,2.79
2023-05-11T11:43:45.211Z,2.72
2023-05-11T11:44:45.242Z,2.73
2023-05-11T11:45:45.186Z,2.63
2023-05-11T11:46:45.202Z,2.63
2023-05-11T11:47:45.182Z,2.64
2023-05-11T11:48:45.147Z,2.59
2023-05-11T11:49:45.141Z,2.54
2023-05-11T11:50:45.121Z,2.45
2023-05-11T11:51:45.112Z,2.41
2023-05-11T11:52:45.102Z,2.37
2023-05-11T11:53:45.084Z,2.39
2023-05-11T11:54:45.069Z,2.35
2023-05-11T11:55:45.055Z,2.27
2023-05-11T11:56:45.109Z,2.20
2023-05-11T11:57:45.026Z,2.13
2023-05-11T11:58:45.022Z,2.11
2023-05-11T11:59:45.002Z,2.12
2023-05-11T12:00:45.012Z,2.13
2023-05-11T12:01:45.017Z,2.12
2023-05-11T12:02:45.104Z,2.12
2023-05-11T12:03:45.249Z,2.16
2023-05-11T12:04:45.021Z,2.17
2023-05-11T12:05:44.926Z,2.17
2023-05-11T12:06:44.905Z,2.17
2023-05-11T12:07:44.892Z,2.16
2023-05-11T12:08:44.879Z,2.12
2023-05-11T12:09:44.934Z,2.07
2023-05-11T12:10:44.852Z,2.02
2023-05-11T12:11:44.840Z,1.97
2023-05-11T12:12:44.827Z,1.93
2023-05-11T12:13:44.813Z,1.88
2023-05-11T12:14:44.803Z,1.84
2023-05-11T12:15:44.791Z,1.83
2023-05-11T12:16:44.886Z,1.82
2023-05-11T12:17:44.776Z,1.82
2023-05-11T12:18:44.780Z,1.82
2023-05-11T12:19:44.740Z,1.82
2023-05-11T12:20:44.728Z,1.82
2023-05-11T12:21:44.716Z,1.82
2023-05-11T12:22:44.702Z,1.80
2023-05-11T12:23:44.687Z,1.80
2023-05-11T12:24:44.677Z,1.80
2023-05-11T12:25:44.666Z,1.84
2023-05-11T12:26:44.650Z,1.84
2023-05-11T12:27:44.642Z,1.86
2023-05-11T12:28:44.625Z,1.86
2023-05-11T12:29:44.613Z,1.86
2023-05-11T12:30:44.598Z,1.84
2023-05-11T12:31:44.643Z,1.84
2023-05-11T12:32:44.634Z,1.84
2023-05-11T12:33:44.563Z,1.82
2023-05-11T12:34:44.550Z,1.82
2023-05-11T12:35:44.538Z,1.83
2023-05-11T12:36:44.519Z,1.83
2023-05-11T12:37:44.514Z,1.83
2023-05-11T12:38:44.499Z,1.82
2023-05-11T12:39:44.498Z,1.79
2023-05-11T12:40:44.475Z,1.77
2023-05-11T12:41:44.463Z,1.73
2023-05-11T12:42:44.451Z,1.70
2023-05-11T12:43:44.450Z,1.70
2023-05-11T12:44:44.423Z,1.70
2023-05-11T12:45:44.410Z,1.70
2023-05-11T12:46:44.475Z,1.72
2023-05-11T12:47:44.397Z,1.70
2023-05-11T12:48:44.395Z,1.70
2023-05-11T12:49:44.365Z,1.70
2023-05-11T12:50:44.382Z,1.69
2023-05-11T12:51:44.331Z,1.69
2023-05-11T12:52:44.317Z,1.69
2023-05-11T12:53:44.307Z,1.68
2023-05-11T12:54:44.293Z,1.65
2023-05-11T12:55:44.292Z,1.63
2023-05-11T12:56:44.269Z,1.62
2023-05-11T12:57:44.257Z,1.63
2023-05-11T12:58:44.247Z,1.63
2023-05-11T12:59:44.230Z,1.63
2023-05-11T13:00:44.213Z,1.63
2023-05-11T13:01:44.258Z,1.63
2023-05-11T13:02:44.262Z,1.60
2023-05-11T13:03:44.412Z,1.58
2023-05-11T13:04:44.206Z,1.56
2023-05-11T13:05:44.157Z,1.55
2023-05-11T13:06:44.138Z,1.54
2023-05-11T13:07:44.127Z,1.53
2023-05-11T13:08:44.113Z,1.50
2023-05-11T13:09:44.099Z,1.48
2023-05-11T13:10:44.087Z,1.44
2023-05-11T13:11:44.075Z,1.40
2023-05-11T13:12:44.065Z,1.39
2023-05-11T13:13:44.079Z,1.37
2023-05-11T13:14:44.034Z,1.37
2023-05-11T13:15:44.081Z,1.36
2023-05-11T13:16:44.008Z,1.36
2023-05-11T13:17:44.011Z,1.35
2023-05-11T13:18:44.140Z,1.35
2023-05-11T13:19:43.973Z,1.35
2023-05-11T13:20:44.007Z,1.32
2023-05-11T13:21:43.946Z,1.31